Time;durP1;ratioP1;P1;durP2;ratioP2;P2;SDS_P1;SDS_P2;PMS_P1;PMS_P2;Temp;Humidity;BMP_temperature;BMP_pressure;BME280_temperature;BME280_humidity;BME280_pressure;Samples;Min_cycle;Max_cycle;Signal;HPM_P1;HPM_P2
2021/01/06 00:01:38;;;;;;;22.15;11.63;;;2.30;96.00;;;;;;5125276;27;27444;-56
2021/01/06 00:04:22;;;;;;;23.63;13.00;;;2.30;96.00;;;;;;5125350;27;27452;-54
2021/01/06 00:07:07;;;;;;;23.40;13.45;;;2.30;96.00;;;;;;5125525;27;27422;-55
2021/01/06 00:09:51;;;;;;;29.58;13.85;;;2.20;96.10;;;;;;5125132;27;28003;-54
2021/01/06 00:12:35;;;;;;;26.05;12.48;;;2.20;96.00;;;;;;5125421;27;27520;-50
2021/01/06 00:15:26;;;;;;;26.48;13.48;;;2.20;96.00;;;;;;5125116;27;27464;-54
2021/01/06 00:18:12;;;;;;;23.63;12.93;;;2.20;96.00;;;;;;5125043;27;27340;-47
2021/01/06 00:20:57;;;;;;;25.15;12.85;;;2.30;96.00;;;;;;5124710;27;27347;-49
2021/01/06 00:23:42;;;;;;;22.80;12.48;;;2.20;96.00;;;;;;5125198;27;27336;-52
2021/01/06 00:26:44;;;;;;;22.83;12.88;;;2.20;96.00;;;;;;5124795;27;27374;-47
2021/01/06 00:29:29;;;;;;;23.63;13.20;;;2.30;96.00;;;;;;5124799;27;27456;-54
2021/01/06 00:32:13;;;;;;;24.50;11.25;;;2.30;96.00;;;;;;5125027;27;27459;-52
2021/01/06 00:34:58;;;;;;;21.58;12.57;;;2.20;96.00;;;;;;5126135;27;27498;-55
2021/01/06 00:37:42;;;;;;;22.30;12.75;;;2.20;96.00;;;;;;5127485;27;27460;-52
2021/01/06 00:40:29;;;;;;;25.35;13.23;;;2.30;96.10;;;;;;5128526;27;26902;-52
2021/01/06 00:43:15;;;;;;;24.85;12.77;;;2.30;96.10;;;;;;5128362;27;27941;-52
2021/01/06 00:46:00;;;;;;;21.13;12.07;;;2.20;96.10;;;;;;5128339;27;27386;-52
2021/01/06 00:48:44;;;;;;;22.42;11.80;;;2.20;96.10;;;;;;5128603;27;27400;-52
2021/01/06 00:51:29;;;;;;;26.75;12.98;;;2.20;96.00;;;;;;5124535;27;27471;-52
2021/01/06 00:54:14;;;;;;;26.15;12.23;;;2.20;96.00;;;;;;5124157;27;27402;-52
2021/01/06 00:56:59;;;;;;;21.55;12.20;;;2.20;96.00;;;;;;5124097;27;27409;-52
2021/01/06 00:59:47;;;;;;;26.10;12.82;;;2.20;96.00;;;;;;5125122;27;27390;-53
2021/01/06 01:02:32;;;;;;;21.50;11.57;;;2.20;96.00;;;;;;5124823;27;27417;-54
2021/01/06 01:05:21;;;;;;;20.70;11.07;;;2.20;96.00;;;;;;5124717;27;27304;-52
2021/01/06 01:08:06;;;;;;;24.15;13.00;;;2.30;96.00;;;;;;5128227;27;27438;-54
2021/01/06 01:10:55;;;;;;;23.67;11.60;;;2.20;96.00;;;;;;5128255;27;27422;-55
2021/01/06 01:13:39;;;;;;;21.83;11.68;;;2.20;96.00;;;;;;5127529;27;27390;-55
2021/01/06 01:16:24;;;;;;;24.20;13.23;;;2.20;96.00;;;;;;5128119;27;27441;-52
2021/01/06 01:19:09;;;;;;;27.00;12.88;;;2.20;96.00;;;;;;5127785;27;27453;-53
2021/01/06 01:21:54;;;;;;;24.67;12.23;;;2.20;96.10;;;;;;5128132;27;27463;-56
2021/01/06 01:24:38;;;;;;;22.38;12.25;;;2.30;96.10;;;;;;5124435;27;27396;-54
2021/01/06 01:27:22;;;;;;;27.25;12.13;;;2.20;96.00;;;;;;5127197;27;27552;-54
2021/01/06 01:30:12;;;;;;;25.25;11.88;;;2.20;96.10;;;;;;5127879;27;27477;-55
2021/01/06 01:32:56;;;;;;;20.77;11.82;;;2.20;96.10;;;;;;5124640;27;27341;-56
2021/01/06 01:35:41;;;;;;;20.67;11.75;;;2.20;96.10;;;;;;5128008;27;27363;-54
2021/01/06 01:38:27;;;;;;;22.60;11.82;;;2.20;96.10;;;;;;5127753;27;27965;-55
2021/01/06 01:41:12;;;;;;;20.08;11.63;;;2.20;96.10;;;;;;5127527;27;27371;-54
2021/01/06 01:43:57;;;;;;;22.08;11.57;;;2.20;96.10;;;;;;5127766;27;27417;-52
2021/01/06 01:46:55;;;;;;;23.15;11.80;;;2.20;96.10;;;;;;5127598;27;27362;-54
2021/01/06 01:49:43;;;;;;;23.10;12.35;;;2.20;96.10;;;;;;5127571;27;27824;-56
2021/01/06 01:52:44;;;;;;;22.23;11.60;;;2.20;96.10;;;;;;5126700;27;27937;-52
2021/01/06 01:55:28;;;;;;;23.30;11.57;;;2.20;96.10;;;;;;5127311;27;27362;-52
2021/01/06 01:58:14;;;;;;;21.27;11.45;;;2.20;96.10;;;;;;5127253;27;27372;-57
2021/01/06 02:00:59;;;;;;;22.00;12.27;;;2.10;96.00;;;;;;5126149;27;27891;-53
2021/01/06 02:03:57;;;;;;;22.15;12.30;;;2.10;96.10;;;;;;5126417;27;27385;-53
2021/01/06 02:06:52;;;;;;;25.50;12.13;;;2.10;96.10;;;;;;5126428;27;27484;-56
2021/01/06 02:09:40;;;;;;;24.17;12.13;;;2.10;96.10;;;;;;5126348;27;27434;-56
2021/01/06 02:12:35;;;;;;;21.27;11.50;;;2.10;96.10;;;;;;5127214;27;27491;-48
2021/01/06 02:15:33;;;;;;;21.85;12.45;;;2.10;96.20;;;;;;5127022;27;27385;-55
2021/01/06 02:18:17;;;;;;;22.60;11.73;;;2.10;96.20;;;;;;5125994;27;27328;-54
2021/01/06 02:21:04;;;;;;;21.67;12.15;;;2.00;96.10;;;;;;5126884;27;27386;-53
2021/01/06 02:23:50;;;;;;;19.63;11.70;;;2.00;96.10;;;;;;5127085;27;27366;-55
2021/01/06 02:26:35;;;;;;;24.88;12.07;;;2.00;96.20;;;;;;5127041;27;27442;-56
2021/01/06 02:29:19;;;;;;;20.20;11.10;;;2.00;96.20;;;;;;5126061;27;27385;-53
2021/01/06 02:32:05;;;;;;;25.33;11.82;;;2.00;96.20;;;;;;5126756;27;27335;-53
2021/01/06 02:34:49;;;;;;;20.17;11.18;;;2.00;96.20;;;;;;5126164;27;27461;-53
2021/01/06 02:37:34;;;;;;;19.52;11.18;;;2.00;96.20;;;;;;5125179;27;27518;-54
2021/01/06 02:40:18;;;;;;;24.90;11.60;;;2.00;96.20;;;;;;5126046;27;27341;-54
2021/01/06 02:43:03;;;;;;;19.67;11.27;;;2.00;96.30;;;;;;5126595;27;27365;-51
2021/01/06 02:45:48;;;;;;;16.90;10.40;;;2.00;96.30;;;;;;5111123;27;27670;-53
2021/01/06 02:48:33;;;;;;;20.50;10.95;;;2.00;96.30;;;;;;5126450;27;27349;-47
2021/01/06 02:51:22;;;;;;;18.10;10.93;;;2.00;96.30;;;;;;5125722;27;27421;-54
2021/01/06 02:54:09;;;;;;;19.23;10.52;;;2.00;96.20;;;;;;5111811;27;27441;-51
2021/01/06 02:56:56;;;;;;;18.67;10.45;;;1.90;96.30;;;;;;5126030;27;27485;-52
2021/01/06 02:59:42;;;;;;;18.35;10.82;;;1.90;96.20;;;;;;5125662;27;27422;-51
2021/01/06 03:02:26;;;;;;;15.30;9.63;;;1.90;96.20;;;;;;5126514;27;27363;-50
2021/01/06 03:05:41;;;;;;;19.90;10.60;;;1.90;96.30;;;;;;5125436;27;27395;-52
2021/01/06 03:08:25;;;;;;;18.13;10.18;;;1.90;96.30;;;;;;5123029;27;27884;-51
2021/01/06 03:11:10;;;;;;;19.80;10.93;;;1.90;96.30;;;;;;5125942;27;27339;-51
2021/01/06 03:13:55;;;;;;;16.65;9.57;;;1.90;96.30;;;;;;5126392;27;27332;-51
2021/01/06 03:16:39;;;;;;;16.48;10.00;;;1.90;96.30;;;;;;5126037;27;27456;-49
2021/01/06 03:19:25;;;;;;;17.27;9.82;;;1.90;96.30;;;;;;5122807;27;27439;-51
2021/01/06 03:22:09;;;;;;;19.92;10.48;;;1.90;96.30;;;;;;5126132;27;27429;-50
2021/01/06 03:25:26;;;;;;;19.67;10.45;;;1.90;96.30;;;;;;5125423;27;27343;-51
2021/01/06 03:28:11;;;;;;;15.70;9.43;;;1.90;96.40;;;;;;5121945;27;27318;-46
2021/01/06 03:30:56;;;;;;;20.10;10.45;;;1.90;96.40;;;;;;5110831;27;27882;-49
2021/01/06 03:33:46;;;;;;;20.95;11.35;;;1.90;96.40;;;;;;5110861;27;27387;-52
2021/01/06 03:36:35;;;;;;;17.38;9.77;;;1.90;96.30;;;;;;5110709;27;27488;-51
2021/01/06 03:39:24;;;;;;;18.05;10.10;;;1.90;96.40;;;;;;5124489;27;27359;-51
2021/01/06 03:42:09;;;;;;;19.63;10.20;;;1.90;96.30;;;;;;5124764;27;27366;-46
2021/01/06 03:44:53;;;;;;;18.10;10.55;;;1.90;96.30;;;;;;5125568;27;27509;-51
2021/01/06 03:47:39;;;;;;;17.15;10.43;;;1.90;96.40;;;;;;5121775;27;27331;-53
2021/01/06 03:50:38;;;;;;;17.13;10.38;;;1.90;96.30;;;;;;5110636;27;27328;-52
2021/01/06 03:53:40;;;;;;;16.83;10.23;;;1.90;96.40;;;;;;5125663;27;27456;-51
2021/01/06 03:56:26;;;;;;;19.50;11.38;;;1.90;96.40;;;;;;5124891;27;27418;-51
2021/01/06 03:59:27;;;;;;;19.02;10.38;;;1.90;96.40;;;;;;5125368;27;27445;-50
2021/01/06 04:02:30;;;;;;;20.23;10.55;;;1.90;96.40;;;;;;5124870;27;27359;-51
2021/01/06 04:05:15;;;;;;;16.17;10.35;;;1.90;96.40;;;;;;5125497;27;27444;-50
2021/01/06 04:08:00;;;;;;;20.20;10.73;;;1.90;96.30;;;;;;5123525;27;27576;-51
2021/01/06 04:10:48;;;;;;;19.60;11.13;;;1.90;96.30;;;;;;5123915;27;27416;-50
2021/01/06 04:13:33;;;;;;;19.45;11.38;;;1.90;96.40;;;;;;5124435;27;27461;-50
2021/01/06 04:16:17;;;;;;;18.80;11.02;;;1.90;96.40;;;;;;5124259;27;27334;-50
2021/01/06 04:19:02;;;;;;;19.02;10.55;;;1.90;96.30;;;;;;5125072;27;27330;-50
2021/01/06 04:21:46;;;;;;;20.05;10.50;;;1.80;96.30;;;;;;5124424;27;27381;-51
2021/01/06 04:24:31;;;;;;;25.45;11.68;;;1.90;96.60;;;;;;5125083;27;27365;-52
2021/01/06 04:27:18;;;;;;;20.75;10.52;;;1.80;96.30;;;;;;5121914;27;27365;-51
2021/01/06 04:30:10;;;;;;;20.50;10.90;;;1.80;96.30;;;;;;5124968;27;27335;-51
2021/01/06 04:32:54;;;;;;;16.67;10.00;;;1.90;96.40;;;;;;5125104;27;27086;-51
2021/01/06 04:35:39;;;;;;;18.17;10.02;;;1.80;96.30;;;;;;5121578;27;27405;-51
2021/01/06 04:38:32;;;;;;;19.77;10.45;;;1.80;96.30;;;;;;5125009;27;27413;-51
2021/01/06 04:41:35;;;;;;;19.50;10.88;;;1.80;96.30;;;;;;5123710;27;27553;-52
2021/01/06 04:44:38;;;;;;;18.15;10.35;;;1.80;96.30;;;;;;5124845;27;27446;-51
2021/01/06 04:47:59;;;;;;;16.75;10.00;;;1.80;96.30;;;;;;5125019;27;27413;-51
2021/01/06 04:51:07;;;;;;;16.17;9.45;;;1.80;96.30;;;;;;5124852;27;27457;-50
2021/01/06 04:54:16;;;;;;;18.45;9.65;;;1.80;96.30;;;;;;5123833;27;27320;-52
2021/01/06 04:57:25;;;;;;;15.43;9.13;;;1.80;96.30;;;;;;5124941;27;27464;-51
2021/01/06 05:00:42;;;;;;;15.88;8.98;;;1.80;96.30;;;;;;5124414;27;27410;-50
2021/01/06 05:03:48;;;;;;;17.85;8.63;;;1.80;96.30;;;;;;5123737;27;27345;-53
2021/01/06 05:06:35;;;;;;;15.43;8.50;;;1.80;96.40;;;;;;5124416;27;27312;-51
2021/01/06 05:09:25;;;;;;;14.52;8.35;;;1.80;96.40;;;;;;5124477;27;27524;-51
2021/01/06 05:12:11;;;;;;;15.40;9.10;;;1.80;96.40;;;;;;5124370;27;27401;-52
2021/01/06 05:15:05;;;;;;;14.95;8.45;;;1.80;96.40;;;;;;5124327;27;27852;-53
2021/01/06 05:17:50;;;;;;;13.80;8.10;;;1.80;96.40;;;;;;5124303;27;27396;-50
2021/01/06 05:20:35;;;;;;;13.73;8.15;;;1.80;96.40;;;;;;5124530;27;27359;-52
2021/01/06 05:23:21;;;;;;;11.57;7.88;;;1.80;96.40;;;;;;5127543;27;27439;-52
2021/01/06 05:26:06;;;;;;;14.45;8.60;;;1.80;96.40;;;;;;5127709;27;27377;-51
2021/01/06 05:28:51;;;;;;;13.10;7.90;;;1.80;96.40;;;;;;5126739;27;27369;-53
2021/01/06 05:31:35;;;;;;;15.15;8.15;;;1.80;96.40;;;;;;5127741;27;27338;-54
2021/01/06 05:34:20;;;;;;;14.93;9.18;;;1.80;96.40;;;;;;5126893;27;27385;-51
2021/01/06 05:37:05;;;;;;;11.02;7.10;;;1.80;96.50;;;;;;5111637;27;27363;-53
2021/01/06 05:39:54;;;;;;;10.35;6.63;;;1.80;96.40;;;;;;5127295;27;27512;-54
2021/01/06 05:42:58;;;;;;;10.93;6.43;;;1.80;96.40;;;;;;5127462;27;27361;-52
2021/01/06 05:45:53;;;;;;;12.75;7.38;;;1.80;96.40;;;;;;5127713;27;27315;-47
2021/01/06 05:48:52;;;;;;;11.93;7.47;;;1.80;96.40;;;;;;5126533;27;27393;-53
2021/01/06 05:51:37;;;;;;;11.95;7.57;;;1.80;96.40;;;;;;5126548;27;27427;-53
2021/01/06 05:54:44;;;;;;;12.13;7.93;;;1.80;96.40;;;;;;5126567;27;27478;-52
2021/01/06 05:57:48;;;;;;;11.57;7.00;;;1.80;96.40;;;;;;5127415;27;27452;-55
2021/01/06 06:01:05;;;;;;;10.48;6.78;;;1.80;96.40;;;;;;5127358;27;27476;-54
2021/01/06 06:03:55;;;;;;;11.75;7.60;;;1.80;96.40;;;;;;5125977;27;27457;-53
2021/01/06 06:06:59;;;;;;;13.00;7.65;;;1.80;96.40;;;;;;5123395;27;27461;-55
2021/01/06 06:10:08;;;;;;;11.07;7.30;;;1.70;96.40;;;;;;5126420;27;27424;-54
2021/01/06 06:13:27;;;;;;;10.10;5.80;;;1.80;96.50;;;;;;5126985;27;27914;-54
2021/01/06 06:16:53;;;;;;;9.98;6.70;;;1.80;96.40;;;;;;5127218;27;27448;-56
2021/01/06 06:20:06;;;;;;;11.10;7.05;;;1.80;96.40;;;;;;5124704;27;27409;-55
2021/01/06 06:23:24;;;;;;;10.02;6.18;;;1.80;96.40;;;;;;5125906;27;27375;-53
2021/01/06 06:26:38;;;;;;;11.25;6.78;;;1.70;96.40;;;;;;5127000;27;27879;-57
2021/01/06 06:29:47;;;;;;;9.80;6.40;;;1.80;96.40;;;;;;5123480;27;27330;-55
2021/01/06 06:32:32;;;;;;;8.88;6.47;;;1.80;96.40;;;;;;5125698;27;27432;-56
2021/01/06 06:35:35;;;;;;;8.73;6.35;;;1.80;96.40;;;;;;5126182;27;27430;-54
2021/01/06 06:38:20;;;;;;;10.52;6.63;;;1.70;96.40;;;;;;5126347;27;27427;-56
2021/01/06 06:41:10;;;;;;;10.82;6.65;;;1.70;96.40;;;;;;5111397;27;27394;-54
2021/01/06 06:44:17;;;;;;;10.43;6.47;;;1.70;96.40;;;;;;5126556;27;27395;-57
2021/01/06 06:47:09;;;;;;;11.18;6.35;;;1.80;96.50;;;;;;5123153;27;27326;-48
2021/01/06 06:50:03;;;;;;;11.60;6.95;;;1.80;96.50;;;;;;5122332;27;27460;-56
2021/01/06 06:53:19;;;;;;;11.23;7.30;;;1.70;96.40;;;;;;5126642;27;27484;-55
2021/01/06 06:56:07;;;;;;;10.90;6.72;;;1.70;96.40;;;;;;5125951;27;27415;-55
2021/01/06 06:59:04;;;;;;;13.60;7.55;;;1.70;96.40;;;;;;5126288;27;27327;-56
2021/01/06 07:01:49;;;;;;;10.38;6.57;;;1.70;96.40;;;;;;5111784;27;27963;-54
2021/01/06 07:04:54;;;;;;;10.55;5.85;;;1.70;96.40;;;;;;5111339;27;27428;-56
2021/01/06 07:07:49;;;;;;;11.10;6.90;;;1.80;96.40;;;;;;5125828;27;27334;-56
2021/01/06 07:10:36;;;;;;;11.98;7.30;;;1.70;96.40;;;;;;5125681;27;27390;-56
2021/01/06 07:13:22;;;;;;;14.18;7.85;;;1.70;96.40;;;;;;5123019;27;27845;-56
2021/01/06 07:16:16;;;;;;;11.60;7.53;;;1.80;96.40;;;;;;5125248;27;27467;-55
2021/01/06 07:19:13;;;;;;;10.38;6.63;;;1.70;96.40;;;;;;5125693;27;27460;-56
2021/01/06 07:22:21;;;;;;;12.43;7.07;;;1.70;96.30;;;;;;5126177;27;27445;-51
2021/01/06 07:25:18;;;;;;;15.02;7.60;;;1.70;96.30;;;;;;5125580;27;27865;-57
2021/01/06 07:28:04;;;;;;;11.82;7.18;;;1.70;96.30;;;;;;5125759;27;27342;-56
2021/01/06 07:30:50;;;;;;;12.55;6.88;;;1.80;96.40;;;;;;5125392;27;27389;-56
2021/01/06 07:33:41;;;;;;;11.25;7.10;;;1.70;96.30;;;;;;5125818;27;27495;-56
2021/01/06 07:36:32;;;;;;;11.52;7.70;;;1.70;96.30;;;;;;5121944;27;27307;-48
2021/01/06 07:39:30;;;;;;;9.75;6.93;;;1.70;96.30;;;;;;5125901;27;27581;-48
2021/01/06 07:42:42;;;;;;;11.80;7.80;;;1.70;96.30;;;;;;5125044;27;27469;-57
2021/01/06 07:45:32;;;;;;;14.02;7.30;;;1.70;96.30;;;;;;5125461;27;27449;-55
2021/01/06 07:48:17;;;;;;;11.52;7.63;;;1.80;96.40;;;;;;5125175;27;27384;-57
2021/01/06 07:51:01;;;;;;;10.68;7.28;;;1.80;96.40;;;;;;5121688;27;27387;-57
2021/01/06 07:53:52;;;;;;;11.68;7.28;;;1.70;96.40;;;;;;5125784;27;27382;-56
2021/01/06 07:56:44;;;;;;;11.02;7.57;;;1.80;96.40;;;;;;5125000;27;27432;-57
2021/01/06 07:59:53;;;;;;;12.73;7.90;;;1.80;96.40;;;;;;5125337;27;27397;-55
2021/01/06 08:02:46;;;;;;;14.68;8.15;;;1.70;96.40;;;;;;5122237;27;27589;-56
2021/01/06 08:05:33;;;;;;;11.90;7.78;;;1.70;96.30;;;;;;5125610;27;27488;-55
2021/01/06 08:08:17;;;;;;;13.07;7.57;;;1.80;96.30;;;;;;5125204;27;27464;-57
2021/01/06 08:11:09;;;;;;;12.30;8.35;;;1.80;96.30;;;;;;5124432;27;27426;-57
2021/01/06 08:13:53;;;;;;;14.70;8.25;;;1.80;96.20;;;;;;5125132;27;27399;-57
2021/01/06 08:16:47;;;;;;;14.20;9.20;;;1.80;96.20;;;;;;5125046;27;27332;-48
2021/01/06 08:19:40;;;;;;;15.10;9.55;;;1.80;96.20;;;;;;5124274;27;27401;-56
2021/01/06 08:22:30;;;;;;;12.40;8.05;;;1.80;96.10;;;;;;5110701;27;27987;-57
2021/01/06 08:25:25;;;;;;;12.75;8.32;;;1.90;96.20;;;;;;5124526;27;27461;-57
2021/01/06 08:28:17;;;;;;;14.82;8.90;;;1.90;96.20;;;;;;5124564;27;27370;-56
2021/01/06 08:31:09;;;;;;;16.42;8.57;;;1.90;96.10;;;;;;5124153;27;27418;-57
2021/01/06 08:33:58;;;;;;;12.38;7.95;;;1.90;96.10;;;;;;5124819;27;27469;-57
2021/01/06 08:36:43;;;;;;;14.00;8.18;;;1.90;96.10;;;;;;5109791;27;27407;-50
2021/01/06 08:39:34;;;;;;;13.80;8.40;;;1.90;96.10;;;;;;5109605;27;27413;-56
2021/01/06 08:42:21;;;;;;;14.32;9.00;;;1.90;96.10;;;;;;5124783;27;27497;-56
2021/01/06 08:45:06;;;;;;;13.45;7.75;;;2.00;96.10;;;;;;5123611;27;27420;-55
2021/01/06 08:47:51;;;;;;;12.50;7.97;;;2.00;96.10;;;;;;5123930;27;27432;-55
2021/01/06 08:50:36;;;;;;;14.25;8.70;;;2.00;96.10;;;;;;5125027;27;27315;-55
2021/01/06 08:53:39;;;;;;;12.40;8.10;;;2.00;96.00;;;;;;5109700;27;27453;-57
2021/01/06 08:56:27;;;;;;;13.30;8.38;;;2.00;95.90;;;;;;5126618;27;27499;-57
2021/01/06 08:59:25;;;;;;;12.10;7.65;;;2.00;96.00;;;;;;5128408;27;27492;-58
2021/01/06 09:02:29;;;;;;;11.98;8.00;;;2.10;95.90;;;;;;5128428;27;27468;-56
2021/01/06 09:05:42;;;;;;;14.80;8.05;;;2.10;95.90;;;;;;5114726;27;27437;-56
2021/01/06 09:08:45;;;;;;;12.80;7.93;;;2.10;95.80;;;;;;5128362;27;27925;-56
2021/01/06 09:11:51;;;;;;;14.85;8.45;;;2.10;95.90;;;;;;5127843;27;27613;-56
2021/01/06 09:14:39;;;;;;;14.05;8.02;;;2.20;95.80;;;;;;5127997;27;27362;-57
2021/01/06 09:17:32;;;;;;;11.88;7.28;;;2.20;95.80;;;;;;5128202;27;27369;-57
2021/01/06 09:20:22;;;;;;;11.80;7.68;;;2.20;95.70;;;;;;5127190;27;27327;-56
2021/01/06 09:23:07;;;;;;;12.93;7.85;;;2.20;95.70;;;;;;5113143;27;27465;-56
2021/01/06 09:25:53;;;;;;;13.05;7.95;;;2.20;95.70;;;;;;5112649;27;27427;-57
2021/01/06 09:28:37;;;;;;;14.02;8.32;;;2.20;95.70;;;;;;5128020;27;27411;-56
2021/01/06 09:31:22;;;;;;;13.93;8.25;;;2.20;95.60;;;;;;5112821;27;27466;-56
2021/01/06 09:34:07;;;;;;;11.65;6.82;;;2.20;95.60;;;;;;5127204;27;27507;-55
2021/01/06 09:36:52;;;;;;;13.55;6.85;;;2.20;95.60;;;;;;5126293;27;27665;-56
2021/01/06 09:39:36;;;;;;;12.02;7.28;;;2.30;95.60;;;;;;5111835;27;27465;-56
2021/01/06 09:42:24;;;;;;;14.45;7.70;;;2.30;95.50;;;;;;5112574;27;27415;-57
2021/01/06 09:45:20;;;;;;;13.48;8.15;;;2.30;95.60;;;;;;5127389;27;27461;-48
2021/01/06 09:48:06;;;;;;;10.80;7.25;;;2.30;95.60;;;;;;5127693;27;27452;-56
2021/01/06 09:50:54;;;;;;;14.77;8.23;;;2.30;95.60;;;;;;5127649;27;27368;-55
2021/01/06 09:53:38;;;;;;;12.20;7.78;;;2.30;95.60;;;;;;5112471;27;27965;-55
2021/01/06 09:56:24;;;;;;;11.63;8.10;;;2.30;95.60;;;;;;5127558;27;27393;-56
2021/01/06 09:59:17;;;;;;;12.77;7.95;;;2.40;95.60;;;;;;5126530;27;27424;-56
2021/01/06 10:02:25;;;;;;;12.80;7.38;;;2.40;95.70;;;;;;5127178;27;27404;-56
2021/01/06 10:05:43;;;;;;;12.07;8.00;;;2.40;95.60;;;;;;5126805;27;27449;-56
2021/01/06 10:08:29;;;;;;;11.30;7.55;;;2.40;95.60;;;;;;5126012;27;27447;-56
2021/01/06 10:11:39;;;;;;;12.07;7.65;;;2.40;95.60;;;;;;5126969;27;27475;-57
2021/01/06 10:14:35;;;;;;;13.00;7.65;;;2.40;95.60;;;;;;5127300;27;27356;-57
2021/01/06 10:17:26;;;;;;;11.85;8.15;;;2.50;95.60;;;;;;5127151;27;27342;-57
2021/01/06 10:20:25;;;;;;;15.13;9.07;;;2.50;95.60;;;;;;5126742;27;27486;-58
2021/01/06 10:23:30;;;;;;;11.68;7.22;;;2.50;95.60;;;;;;5126455;27;27405;-58
2021/01/06 10:26:52;;;;;;;15.10;8.35;;;2.60;95.50;;;;;;5127091;27;27377;-58
2021/01/06 10:29:48;;;;;;;13.23;7.72;;;2.60;95.50;;;;;;5126738;27;27372;-57
2021/01/06 10:32:50;;;;;;;14.18;8.35;;;2.60;95.50;;;;;;5126036;27;27322;-54
2021/01/06 10:35:58;;;;;;;10.68;7.05;;;2.70;95.50;;;;;;5127023;27;27489;-59
2021/01/06 10:38:43;;;;;;;13.25;7.57;;;2.70;95.40;;;;;;5126630;27;26936;-60
2021/01/06 10:41:32;;;;;;;10.80;7.07;;;2.70;95.30;;;;;;5126553;27;27327;-61
2021/01/06 10:44:37;;;;;;;13.10;7.95;;;2.70;95.30;;;;;;5126442;27;27468;-61
2021/01/06 10:47:30;;;;;;;13.77;8.68;;;2.80;95.30;;;;;;5126546;27;27484;-61
2021/01/06 10:50:24;;;;;;;10.80;7.20;;;2.80;95.20;;;;;;5126781;27;27374;-59
2021/01/06 10:53:18;;;;;;;14.15;8.40;;;2.80;95.20;;;;;;5126678;27;27851;-62
2021/01/06 10:56:10;;;;;;;12.65;8.00;;;2.80;95.10;;;;;;5126656;27;27318;-61
2021/01/06 10:59:04;;;;;;;12.98;7.47;;;2.80;95.10;;;;;;5125972;27;27528;-61
2021/01/06 11:02:14;;;;;;;11.35;7.43;;;2.90;95.10;;;;;;5125052;27;27443;-61
2021/01/06 11:05:10;;;;;;;13.82;8.00;;;2.90;95.00;;;;;;5125721;27;27358;-61
2021/01/06 11:08:28;;;;;;;12.77;8.10;;;2.90;95.00;;;;;;5125481;27;27385;-61
2021/01/06 11:11:18;;;;;;;12.20;7.60;;;2.90;95.10;;;;;;5126496;27;27421;-61
2021/01/06 11:14:06;;;;;;;12.00;7.43;;;2.90;95.10;;;;;;5126368;27;27362;-61
2021/01/06 11:17:18;;;;;;;11.88;8.30;;;2.90;95.00;;;;;;5122148;27;27444;-61
2021/01/06 11:20:24;;;;;;;12.05;7.18;;;2.90;94.90;;;;;;5124218;27;27375;-61
2021/01/06 11:23:27;;;;;;;10.35;7.20;;;2.90;94.90;;;;;;5125385;27;27378;-61
2021/01/06 11:26:21;;;;;;;12.60;7.30;;;2.90;94.90;;;;;;5126213;27;27322;-61
2021/01/06 11:29:17;;;;;;;11.23;7.40;;;3.00;94.90;;;;;;5125710;27;27377;-61
2021/01/06 11:32:11;;;;;;;11.23;7.80;;;3.00;94.80;;;;;;5125803;27;27401;-61
2021/01/06 11:35:29;;;;;;;12.98;6.93;;;3.00;94.70;;;;;;5125078;27;27424;-61
2021/01/06 11:38:38;;;;;;;12.50;6.88;;;3.00;94.80;;;;;;5125265;27;27611;-61
2021/01/06 11:41:26;;;;;;;9.07;6.22;;;3.00;94.70;;;;;;5125314;27;27480;-62
2021/01/06 11:44:28;;;;;;;10.30;6.72;;;3.00;94.60;;;;;;5125783;27;27446;-62
2021/01/06 11:47:31;;;;;;;10.80;7.00;;;3.00;94.60;;;;;;5126045;27;27464;-63
2021/01/06 11:50:36;;;;;;;10.40;6.93;;;3.00;94.60;;;;;;5125077;27;27433;-63
2021/01/06 11:53:25;;;;;;;9.55;6.20;;;3.00;94.60;;;;;;5125440;27;27457;-62
2021/01/06 11:56:17;;;;;;;9.52;6.10;;;3.00;94.60;;;;;;5124631;27;27653;-62
2021/01/06 11:59:41;;;;;;;7.93;6.07;;;3.00;94.60;;;;;;5124740;27;27487;-63
2021/01/06 12:02:28;;;;;;;10.40;5.60;;;3.00;94.70;;;;;;5122288;27;27442;-62
2021/01/06 12:05:31;;;;;;;9.07;6.38;;;3.00;94.60;;;;;;5124846;27;27476;-62
2021/01/06 12:09:04;;;;;;;9.25;5.90;;;3.00;94.60;;;;;;5125519;27;27460;-62
2021/01/06 12:11:55;;;;;;;10.73;5.72;;;3.00;94.60;;;;;;5123285;27;27693;-61
2021/01/06 12:14:49;;;;;;;8.88;5.57;;;2.90;94.70;;;;;;5124740;27;27483;-61
2021/01/06 12:17:39;;;;;;;10.02;6.60;;;2.90;94.70;;;;;;5124667;27;28013;-61
2021/01/06 12:20:26;;;;;;;9.30;6.15;;;2.90;94.70;;;;;;5124543;27;27378;-62
2021/01/06 12:23:14;;;;;;;8.30;6.18;;;2.90;94.80;;;;;;5124276;27;27485;-58
2021/01/06 12:25:59;;;;;;;9.30;5.40;;;2.90;94.80;;;;;;5125299;27;27457;-60
2021/01/06 12:28:49;;;;;;;8.18;6.13;;;2.90;94.80;;;;;;5125305;27;27929;-62
2021/01/06 12:31:48;;;;;;;8.73;5.68;;;2.90;94.80;;;;;;5126793;27;27381;-62
2021/01/06 12:34:39;;;;;;;10.48;7.22;;;2.90;94.90;;;;;;5128744;27;27492;-63
2021/01/06 12:37:26;;;;;;;9.20;6.57;;;2.90;95.00;;;;;;5128204;27;27384;-63
2021/01/06 12:40:11;;;;;;;7.85;5.88;;;2.90;95.00;;;;;;5127677;27;27933;-63
2021/01/06 12:42:59;;;;;;;12.43;6.60;;;2.80;95.00;;;;;;5128766;27;27421;-62
2021/01/06 12:45:45;;;;;;;14.55;7.35;;;2.80;94.90;;;;;;5113629;27;27466;-63
2021/01/06 12:48:33;;;;;;;10.32;6.65;;;2.80;94.90;;;;;;5128037;27;27453;-63
2021/01/06 12:51:21;;;;;;;10.80;7.13;;;2.80;95.00;;;;;;5127500;27;27344;-63
2021/01/06 12:54:08;;;;;;;8.38;6.35;;;2.80;95.10;;;;;;5124651;27;27418;-62
2021/01/06 12:57:08;;;;;;;10.77;6.72;;;2.80;95.10;;;;;;5127256;27;27442;-63
2021/01/06 12:59:55;;;;;;;11.25;6.47;;;2.70;95.10;;;;;;5127925;27;27412;-63
2021/01/06 13:02:40;;;;;;;12.32;7.07;;;2.70;95.10;;;;;;5128164;27;27343;-63
2021/01/06 13:05:26;;;;;;;9.85;6.68;;;2.70;95.10;;;;;;5127439;27;27424;-62
2021/01/06 13:08:28;;;;;;;9.35;6.88;;;2.70;95.30;;;;;;5128175;27;27483;-61
2021/01/06 13:11:24;;;;;;;10.77;6.35;;;2.70;95.30;;;;;;5128348;27;27367;-61
2021/01/06 13:14:33;;;;;;;9.65;6.45;;;2.60;95.30;;;;;;5114268;27;27359;-61
2021/01/06 13:17:29;;;;;;;10.52;6.90;;;2.70;95.30;;;;;;5127440;27;27410;-61
2021/01/06 13:20:33;;;;;;;10.48;6.93;;;2.60;95.20;;;;;;5127508;27;27418;-60
2021/01/06 13:23:41;;;;;;;12.95;7.38;;;2.60;95.30;;;;;;5128109;27;27389;-61
2021/01/06 13:26:39;;;;;;;12.07;7.03;;;2.60;95.30;;;;;;5127856;27;27880;-61
2021/01/06 13:29:30;;;;;;;9.68;6.95;;;2.60;95.40;;;;;;5128053;27;27368;-61
2021/01/06 13:32:48;;;;;;;10.70;6.70;;;2.50;95.50;;;;;;5127093;27;27449;-61
2021/01/06 13:35:34;;;;;;;12.23;7.65;;;2.50;95.50;;;;;;5127136;27;27392;-62
2021/01/06 13:38:27;;;;;;;8.32;6.35;;;2.50;95.60;;;;;;5127585;27;27863;-62
2021/01/06 13:41:30;;;;;;;9.93;6.70;;;2.50;95.60;;;;;;5122836;27;27397;-61
2021/01/06 13:44:31;;;;;;;11.38;7.45;;;2.50;95.60;;;;;;5127664;27;27411;-61
2021/01/06 13:47:22;;;;;;;11.00;7.15;;;2.50;95.60;;;;;;5124131;27;27406;-62
2021/01/06 13:50:38;;;;;;;11.35;7.30;;;2.50;95.60;;;;;;5113159;27;27377;-62
2021/01/06 13:53:59;;;;;;;11.55;7.38;;;2.50;95.60;;;;;;5127690;27;27500;-62
2021/01/06 13:57:11;;;;;;;12.27;7.97;;;2.50;95.60;;;;;;5124134;27;27413;-62
2021/01/06 14:00:24;;;;;;;12.25;8.10;;;2.50;95.60;;;;;;5124197;27;27466;-62
2021/01/06 14:03:29;;;;;;;12.00;7.13;;;2.50;95.60;;;;;;5127527;27;27332;-62
2021/01/06 14:06:23;;;;;;;12.88;7.80;;;2.50;95.60;;;;;;5126516;27;27558;-62
2021/01/06 14:10:01;;;;;;;13.57;7.75;;;2.50;95.60;;;;;;5127182;27;27312;-62
2021/01/06 14:13:09;;;;;;;15.32;8.75;;;2.50;95.60;;;;;;5125257;27;27718;-63
2021/01/06 14:16:28;;;;;;;17.17;10.15;;;2.50;95.60;;;;;;5125376;27;27984;-61
2021/01/06 14:19:40;;;;;;;16.92;9.65;;;2.40;95.70;;;;;;5107444;27;27442;-61
2021/01/06 14:22:51;;;;;;;18.67;10.35;;;2.40;95.60;;;;;;5125269;27;27474;-62
2021/01/06 14:25:45;;;;;;;20.77;11.07;;;2.40;95.70;;;;;;5107600;27;27509;-61
2021/01/06 14:28:43;;;;;;;14.63;8.88;;;2.40;95.70;;;;;;5125491;27;27432;-62
2021/01/06 14:31:35;;;;;;;20.10;10.23;;;2.40;95.80;;;;;;5125074;27;27533;-62
2021/01/06 14:34:23;;;;;;;20.08;9.15;;;2.40;95.80;;;;;;5111147;27;27479;-61
2021/01/06 14:37:20;;;;;;;17.60;9.45;;;2.40;95.70;;;;;;5123641;27;27697;-60
2021/01/06 14:40:13;;;;;;;18.98;9.55;;;2.40;95.70;;;;;;5125060;27;27449;-60
2021/01/06 14:43:00;;;;;;;14.05;8.80;;;2.40;95.70;;;;;;5125526;27;27593;-61
2021/01/06 14:46:12;;;;;;;13.23;8.15;;;2.40;95.70;;;;;;5126887;27;27466;-60
2021/01/06 14:49:16;;;;;;;13.15;7.88;;;2.40;95.90;;;;;;5122832;27;27453;-60
2021/01/06 14:52:21;;;;;;;16.80;8.40;;;2.40;95.90;;;;;;5125970;27;27875;-60
2021/01/06 14:55:17;;;;;;;14.82;8.13;;;2.30;95.90;;;;;;5125860;27;27496;-60
2021/01/06 14:58:24;;;;;;;13.15;8.27;;;2.30;95.90;;;;;;5126659;27;26935;-60
2021/01/06 15:01:21;;;;;;;14.65;7.57;;;2.30;95.90;;;;;;5126287;27;27516;-60
2021/01/06 15:04:29;;;;;;;12.50;7.50;;;2.30;95.90;;;;;;5126282;27;27326;-60